createdAt,value
2018-07-11T00:00:36.542Z,17.70
2018-07-11T00:03:05.841Z,17.80
2018-07-11T00:05:35.071Z,17.80
2018-07-11T00:08:04.129Z,17.80
2018-07-11T00:10:33.942Z,17.90
2018-07-11T00:13:03.102Z,17.90
2018-07-11T00:15:32.403Z,17.80
2018-07-11T00:18:01.600Z,17.90
2018-07-11T00:20:30.924Z,17.80
2018-07-11T00:23:00.169Z,17.80
2018-07-11T00:25:29.353Z,17.80
2018-07-11T00:30:27.506Z,17.80
2018-07-11T00:32:56.605Z,17.80
2018-07-11T00:35:25.830Z,17.80
2018-07-11T00:40:23.741Z,17.80
2018-07-11T00:42:53.049Z,17.80
2018-07-11T00:45:23.048Z,17.80
2018-07-11T00:47:53.007Z,17.70
2018-07-11T00:50:22.225Z,17.70
2018-07-11T00:52:51.395Z,17.70
2018-07-11T00:55:20.394Z,17.60
2018-07-11T00:57:49.503Z,17.60
2018-07-11T01:00:18.457Z,17.60
2018-07-11T01:02:48.094Z,17.60
2018-07-11T01:05:17.064Z,17.50
2018-07-11T01:07:46.661Z,17.50
2018-07-11T01:10:15.840Z,17.50
2018-07-11T01:12:45.539Z,17.60
2018-07-11T01:15:15.157Z,17.50
2018-07-11T01:17:49.666Z,17.50
2018-07-11T01:20:19.042Z,17.40
2018-07-11T01:22:48.127Z,17.30
2018-07-11T01:25:17.248Z,17.20
2018-07-11T01:27:46.506Z,17.20
2018-07-11T01:30:15.633Z,17.20
2018-07-11T01:32:44.740Z,17.10
2018-07-11T01:35:14.759Z,17.10
2018-07-11T01:37:43.848Z,17.10
2018-07-11T01:40:13.158Z,17.00
2018-07-11T01:42:42.241Z,17.10
2018-07-11T01:45:12.074Z,17.00
2018-07-11T01:47:41.239Z,17.00
2018-07-11T01:50:10.533Z,17.00
2018-07-11T01:52:50.820Z,17.00
2018-07-11T01:55:20.092Z,17.00
2018-07-11T01:57:50.055Z,17.00
2018-07-11T02:00:20.039Z,17.00
2018-07-11T02:02:49.751Z,17.00
2018-07-11T02:05:19.018Z,16.90
2018-07-11T02:07:48.020Z,16.90
2018-07-11T02:10:17.032Z,16.90
2018-07-11T02:12:46.048Z,16.90
2018-07-11T02:15:14.983Z,16.80
2018-07-11T02:17:44.003Z,16.80
2018-07-11T02:20:15.024Z,16.80
2018-07-11T02:22:44.269Z,16.80
2018-07-11T02:25:15.588Z,16.80
2018-07-11T02:27:44.899Z,16.90
2018-07-11T02:30:14.081Z,16.90
2018-07-11T02:32:44.093Z,16.90
2018-07-11T02:35:13.296Z,16.80
2018-07-11T02:37:42.379Z,16.80
2018-07-11T02:40:11.571Z,16.70
2018-07-11T02:42:41.999Z,16.70
2018-07-11T02:45:10.992Z,16.60
2018-07-11T02:47:42.375Z,16.50
2018-07-11T02:50:12.352Z,16.50
2018-07-11T02:52:41.827Z,16.50
2018-07-11T02:55:11.026Z,16.50
2018-07-11T02:57:40.229Z,16.40
2018-07-11T03:00:09.490Z,16.40
2018-07-11T03:02:38.683Z,16.40
2018-07-11T03:05:07.701Z,16.40
2018-07-11T03:07:36.885Z,16.40
2018-07-11T03:10:06.285Z,16.30
2018-07-11T03:12:36.102Z,16.20
2018-07-11T03:15:05.259Z,16.20
2018-07-11T03:17:34.631Z,16.10
2018-07-11T03:20:04.377Z,16.10
2018-07-11T03:22:33.427Z,16.20
2018-07-11T03:25:02.392Z,16.20
2018-07-11T03:27:31.395Z,16.20
2018-07-11T03:30:00.349Z,16.20
2018-07-11T03:32:29.250Z,16.20
2018-07-11T03:34:58.333Z,16.30
2018-07-11T03:37:27.405Z,16.30
2018-07-11T03:42:26.074Z,16.30
2018-07-11T03:44:55.688Z,16.30
2018-07-11T03:47:25.043Z,16.40
2018-07-11T03:49:54.136Z,16.40
2018-07-11T03:52:23.308Z,16.40
2018-07-11T03:54:53.136Z,16.40
2018-07-11T03:57:22.558Z,16.50
2018-07-11T03:59:52.460Z,16.40
2018-07-11T04:02:21.645Z,16.50
2018-07-11T04:04:51.069Z,16.50
2018-07-11T04:07:20.404Z,16.50
2018-07-11T04:09:49.516Z,16.50
2018-07-11T04:12:18.591Z,16.50
2018-07-11T04:14:47.701Z,16.50
2018-07-11T04:17:16.777Z,16.60
2018-07-11T04:19:45.992Z,16.70
2018-07-11T04:22:15.654Z,16.70
2018-07-11T04:24:44.746Z,16.70
2018-07-11T04:27:14.113Z,16.70
2018-07-11T04:29:43.412Z,16.80
2018-07-11T04:32:12.441Z,16.90
2018-07-11T04:34:41.548Z,16.90
2018-07-11T04:37:10.905Z,16.90
2018-07-11T04:39:39.955Z,17.00
2018-07-11T04:42:09.060Z,16.90
2018-07-11T04:44:38.093Z,16.90
2018-07-11T04:47:07.038Z,16.90
2018-07-11T04:52:04.831Z,17.00
2018-07-11T04:54:35.159Z,16.90
2018-07-11T04:57:04.555Z,17.00
2018-07-11T04:59:33.785Z,17.00
2018-07-11T05:02:03.471Z,17.00
2018-07-11T05:04:32.883Z,17.00
2018-07-11T05:07:02.790Z,17.00
2018-07-11T05:09:31.901Z,17.00
2018-07-11T05:12:00.935Z,16.90
2018-07-11T05:14:30.072Z,16.90
2018-07-11T05:16:59.144Z,16.90
2018-07-11T05:19:28.128Z,16.90
2018-07-11T05:21:57.352Z,17.00
2018-07-11T05:24:26.664Z,16.90
2018-07-11T05:26:56.444Z,16.90
2018-07-11T05:29:25.473Z,17.10
2018-07-11T05:31:55.773Z,17.10
2018-07-11T05:34:25.430Z,17.10
2018-07-11T05:36:54.644Z,17.30
2018-07-11T05:39:24.223Z,17.30
2018-07-11T05:41:53.796Z,17.40
2018-07-11T05:44:22.980Z,17.50
2018-07-11T05:46:56.267Z,17.50
2018-07-11T05:49:25.196Z,17.50
2018-07-11T05:51:54.073Z,17.70
2018-07-11T05:54:22.985Z,17.80
2018-07-11T05:56:52.046Z,17.70
2018-07-11T05:59:21.005Z,17.60
2018-07-11T06:01:49.873Z,17.50
2018-07-11T06:04:18.914Z,17.60
2018-07-11T06:06:48.294Z,17.60
2018-07-11T06:09:17.392Z,17.70
2018-07-11T06:11:46.570Z,17.80
2018-07-11T06:14:15.665Z,17.80
2018-07-11T06:16:44.969Z,17.90
2018-07-11T06:19:14.164Z,17.80
2018-07-11T06:21:45.024Z,17.90
2018-07-11T06:24:15.468Z,18.10
2018-07-11T06:26:44.628Z,18.60
2018-07-11T06:29:13.809Z,18.90
2018-07-11T06:31:43.015Z,19.00
2018-07-11T06:34:12.229Z,19.00
2018-07-11T06:36:41.284Z,19.30
2018-07-11T06:39:10.449Z,19.30
2018-07-11T06:44:10.717Z,18.80
2018-07-11T06:46:39.910Z,18.80
2018-07-11T06:49:09.246Z,19.00
2018-07-11T06:51:38.279Z,19.30
2018-07-11T06:56:36.928Z,19.40
2018-07-11T06:59:06.099Z,19.30
2018-07-11T07:01:35.181Z,19.30
2018-07-11T07:04:04.113Z,19.40
2018-07-11T07:06:33.126Z,19.70
2018-07-11T07:09:02.069Z,19.90
2018-07-11T07:11:30.920Z,20.20
2018-07-11T07:13:59.795Z,20.30
2018-07-11T07:16:28.717Z,20.50
2018-07-11T07:18:57.620Z,20.90
2018-07-11T07:21:26.737Z,21.40
2018-07-11T07:23:55.975Z,21.90
2018-07-11T07:26:25.932Z,22.30
2018-07-11T07:28:55.442Z,22.10
2018-07-11T07:31:24.614Z,22.10
2018-07-11T07:33:53.675Z,22.20
2018-07-11T07:38:51.307Z,22.80
2018-07-11T07:41:21.631Z,22.10
2018-07-11T07:43:51.499Z,22.10
2018-07-11T07:46:21.589Z,22.20
2018-07-11T07:48:51.268Z,22.50
2018-07-11T07:51:20.937Z,22.80
2018-07-11T07:53:50.168Z,23.20
2018-07-11T07:56:19.312Z,23.50
2018-07-11T07:58:48.561Z,24.00
2018-07-11T08:01:18.368Z,24.10
2018-07-11T08:03:47.528Z,23.60
2018-07-11T08:06:16.662Z,23.00
2018-07-11T08:08:45.621Z,22.70
2018-07-11T08:11:14.912Z,22.90
2018-07-11T08:13:44.157Z,22.70
2018-07-11T08:16:13.233Z,22.60
2018-07-11T08:18:43.710Z,22.60
2018-07-11T08:21:12.649Z,22.80
2018-07-11T08:23:52.448Z,22.60
2018-07-11T08:26:32.376Z,22.60
2018-07-11T08:30:43.165Z,22.60
2018-07-11T08:34:25.404Z,22.70
2018-07-11T08:37:09.240Z,22.80
2018-07-11T08:40:04.877Z,22.40
2018-07-11T08:42:58.133Z,22.10
2018-07-11T08:46:13.473Z,22.00
2018-07-11T08:48:53.668Z,21.90
2018-07-11T08:53:40.279Z,21.90
2018-07-11T08:56:24.775Z,21.90
2018-07-11T08:59:38.185Z,22.20
2018-07-11T09:04:17.406Z,22.70
2018-07-11T09:06:59.607Z,23.10
2018-07-11T09:09:56.093Z,23.90
2018-07-11T09:12:46.022Z,24.20
2018-07-11T09:19:33.877Z,24.80
2018-07-11T09:24:17.426Z,25.10
2018-07-11T09:26:46.414Z,27.10
2018-07-11T09:29:15.740Z,28.50
2018-07-11T09:31:44.911Z,29.80
2018-07-11T09:34:13.862Z,30.50
2018-07-11T09:36:42.784Z,32.30
2018-07-11T09:39:11.705Z,31.60
2018-07-11T09:41:40.675Z,29.80
2018-07-11T09:44:09.588Z,28.20
2018-07-11T09:46:38.613Z,27.80
2018-07-11T09:49:08.069Z,27.70
2018-07-11T09:51:38.274Z,27.60
2018-07-11T09:54:07.355Z,27.20
2018-07-11T09:56:36.581Z,26.50
2018-07-11T09:59:05.643Z,26.10
2018-07-11T10:01:34.804Z,26.10
2018-07-11T10:04:05.163Z,26.00
2018-07-11T10:06:34.324Z,25.70
2018-07-11T10:09:04.100Z,25.60
2018-07-11T10:11:33.009Z,25.50
2018-07-11T10:14:02.427Z,25.90
2018-07-11T10:16:31.359Z,25.90
2018-07-11T10:19:06.855Z,26.10
2018-07-11T10:21:36.031Z,26.50
2018-07-11T10:24:05.111Z,27.10
2018-07-11T10:26:34.126Z,27.60
2018-07-11T10:29:03.137Z,27.50
2018-07-11T10:31:32.084Z,27.40
2018-07-11T10:36:30.460Z,26.30
2018-07-11T10:38:59.575Z,25.70
2018-07-11T10:41:28.650Z,25.60
2018-07-11T10:43:57.749Z,25.50
2018-07-11T10:46:26.808Z,25.60
2018-07-11T10:48:55.650Z,25.80
2018-07-11T10:51:24.673Z,26.00
2018-07-11T10:53:53.601Z,25.80
2018-07-11T10:56:22.488Z,25.60
2018-07-11T10:58:51.497Z,25.90
2018-07-11T11:01:20.548Z,25.90
2018-07-11T11:03:49.381Z,26.10
2018-07-11T11:06:18.400Z,26.50
2018-07-11T11:08:47.540Z,26.60
2018-07-11T11:11:16.788Z,26.20
2018-07-11T11:13:45.717Z,25.90
2018-07-11T11:16:14.664Z,25.70
2018-07-11T11:18:44.323Z,25.70
2018-07-11T11:21:13.396Z,26.10
2018-07-11T11:23:42.673Z,26.60
2018-07-11T11:26:11.972Z,26.60
2018-07-11T11:28:41.309Z,26.30
2018-07-11T11:31:10.453Z,25.90
2018-07-11T11:33:39.568Z,26.30
2018-07-11T11:36:08.735Z,26.60
2018-07-11T11:38:37.928Z,26.80
2018-07-11T11:41:07.168Z,27.10
2018-07-11T11:43:36.319Z,26.60
2018-07-11T11:46:05.525Z,26.30
2018-07-11T11:48:34.583Z,25.90
2018-07-11T11:51:03.816Z,25.20
2018-07-11T11:53:32.925Z,25.20
2018-07-11T11:56:01.991Z,25.00
2018-07-11T11:58:31.198Z,24.80
2018-07-11T12:01:00.260Z,24.90
2018-07-11T12:03:29.181Z,25.00
2018-07-11T12:05:58.112Z,25.30
2018-07-11T12:08:27.067Z,25.70
2018-07-11T12:10:55.948Z,25.70
2018-07-11T12:13:24.845Z,25.80
2018-07-11T12:15:53.700Z,26.00
2018-07-11T12:18:23.125Z,25.80
2018-07-11T12:20:52.308Z,25.60
2018-07-11T12:23:21.338Z,25.40
2018-07-11T12:26:05.312Z,25.20
2018-07-11T12:28:34.357Z,24.90
2018-07-11T12:31:04.264Z,24.70
2018-07-11T12:33:33.488Z,24.90
2018-07-11T12:36:02.786Z,25.20
2018-07-11T12:38:32.789Z,25.50
2018-07-11T12:41:02.515Z,26.00
2018-07-11T12:43:31.808Z,26.60
2018-07-11T12:46:00.886Z,27.10
2018-07-11T12:48:35.304Z,27.20
2018-07-11T12:51:04.571Z,27.50
2018-07-11T12:53:33.868Z,27.00
2018-07-11T12:56:02.875Z,26.30
2018-07-11T12:58:32.925Z,26.00
2018-07-11T13:01:02.377Z,25.80
2018-07-11T13:03:31.574Z,25.20
2018-07-11T13:06:00.740Z,25.20
2018-07-11T13:08:29.994Z,24.90
2018-07-11T13:10:59.700Z,25.00
2018-07-11T13:13:28.631Z,24.90
2018-07-11T13:15:57.972Z,24.80
2018-07-11T13:18:26.957Z,24.70
2018-07-11T13:20:56.558Z,24.40
2018-07-11T13:23:25.746Z,24.20
2018-07-11T13:25:54.674Z,24.00
2018-07-11T13:28:23.620Z,24.10
2018-07-11T13:30:52.605Z,24.20
2018-07-11T13:33:21.691Z,24.30
2018-07-11T13:35:50.804Z,24.20
2018-07-11T13:38:20.002Z,24.30
2018-07-11T13:40:48.913Z,24.20
2018-07-11T13:43:17.808Z,24.20
2018-07-11T13:45:46.905Z,24.10
2018-07-11T13:48:16.929Z,23.90
2018-07-11T13:50:45.885Z,23.40
2018-07-11T13:53:15.136Z,22.90
2018-07-11T13:55:44.593Z,22.30
2018-07-11T13:58:13.699Z,21.30
2018-07-11T14:00:42.889Z,20.70
2018-07-11T14:03:12.031Z,20.30
2018-07-11T14:05:41.809Z,20.20
2018-07-11T14:08:11.064Z,20.30
2018-07-11T14:10:40.233Z,20.40
2018-07-11T14:13:09.472Z,20.60
2018-07-11T14:15:38.580Z,20.60
2018-07-11T14:18:07.756Z,20.20
2018-07-11T14:20:36.937Z,19.60
2018-07-11T14:23:08.140Z,19.30
2018-07-11T14:25:39.658Z,18.90
2018-07-11T14:28:09.179Z,18.90
2018-07-11T14:30:39.832Z,19.30
2018-07-11T14:33:09.853Z,19.60
2018-07-11T14:35:38.806Z,19.90
2018-07-11T14:38:07.701Z,20.30
2018-07-11T14:40:36.657Z,20.70
2018-07-11T14:43:05.603Z,20.90
2018-07-11T14:45:34.768Z,20.90
2018-07-11T14:48:10.541Z,20.90
2018-07-11T14:50:39.792Z,20.90
2018-07-11T14:53:08.797Z,20.80
2018-07-11T14:55:37.962Z,20.80
2018-07-11T14:58:07.851Z,20.80
2018-07-11T15:00:37.109Z,20.50
2018-07-11T15:03:06.348Z,20.40
2018-07-11T15:05:35.563Z,20.10
2018-07-11T15:08:05.129Z,20.10
2018-07-11T15:10:34.487Z,20.00
2018-07-11T15:13:03.868Z,20.10
2018-07-11T15:15:33.244Z,20.10
2018-07-11T15:18:02.290Z,20.30
2018-07-11T15:20:32.121Z,20.40
2018-07-11T15:23:01.393Z,20.60
2018-07-11T15:25:30.725Z,20.80
2018-07-11T15:27:59.764Z,20.80
2018-07-11T15:30:28.948Z,20.80
2018-07-11T15:32:58.287Z,20.80
2018-07-11T15:35:27.448Z,20.70
2018-07-11T15:37:56.671Z,20.60
2018-07-11T15:40:26.028Z,20.60
2018-07-11T15:42:55.216Z,20.60
2018-07-11T15:45:24.316Z,20.50
2018-07-11T15:47:53.305Z,20.40
2018-07-11T15:50:23.133Z,20.40
2018-07-11T15:52:51.973Z,20.30
2018-07-11T15:55:21.927Z,20.10
2018-07-11T15:57:51.774Z,20.10
2018-07-11T16:00:24.579Z,20.00
2018-07-11T16:02:53.642Z,20.00
2018-07-11T16:05:24.346Z,19.90
2018-07-11T16:07:54.675Z,19.90
2018-07-11T16:10:30.912Z,19.80
2018-07-11T16:13:00.820Z,19.60
2018-07-11T16:15:30.476Z,19.60
2018-07-11T16:17:59.749Z,19.40
2018-07-11T16:20:29.039Z,19.20
2018-07-11T16:22:58.161Z,19.20
2018-07-11T16:25:27.613Z,19.20
2018-07-11T16:27:57.785Z,19.10
2018-07-11T16:30:27.078Z,19.10
2018-07-11T16:32:56.114Z,18.90
2018-07-11T16:35:25.362Z,18.90
2018-07-11T16:37:55.147Z,18.80
2018-07-11T16:40:24.589Z,18.80
2018-07-11T16:42:54.073Z,18.70
2018-07-11T16:45:23.167Z,18.70
2018-07-11T16:47:52.279Z,18.70
2018-07-11T16:50:21.571Z,18.70
2018-07-11T16:52:51.253Z,18.60
2018-07-11T16:55:20.674Z,18.50
2018-07-11T16:57:51.191Z,18.40
2018-07-11T17:00:24.969Z,18.20
2018-07-11T17:03:01.441Z,18.20
2018-07-11T17:06:33.052Z,18.20
2018-07-11T17:09:02.173Z,18.10
2018-07-11T17:11:31.248Z,18.00
2018-07-11T17:14:03.304Z,18.00
2018-07-11T17:17:06.544Z,17.90
2018-07-11T17:19:51.224Z,17.80
2018-07-11T17:22:25.926Z,17.70
2018-07-11T17:24:55.119Z,17.70
2018-07-11T17:27:24.899Z,17.70
2018-07-11T17:30:00.116Z,17.70
2018-07-11T17:32:30.055Z,17.70
2018-07-11T17:34:59.400Z,17.70
2018-07-11T17:37:43.429Z,17.50
2018-07-11T17:40:13.496Z,17.40
2018-07-11T17:42:44.410Z,17.40
2018-07-11T17:45:19.838Z,17.30
2018-07-11T17:48:00.087Z,17.30
2018-07-11T17:50:30.076Z,17.30
2018-07-11T17:53:09.229Z,17.30
2018-07-11T17:56:01.333Z,17.20
2018-07-11T17:58:53.594Z,17.20
2018-07-11T18:01:29.676Z,17.20
2018-07-11T18:04:09.772Z,17.10
2018-07-11T18:07:21.296Z,17.00
2018-07-11T18:10:01.756Z,17.00
2018-07-11T18:12:40.601Z,17.00
2018-07-11T18:15:19.175Z,17.00
2018-07-11T18:18:00.816Z,17.00
2018-07-11T18:20:40.629Z,17.00
2018-07-11T18:23:19.984Z,17.10
2018-07-11T18:28:01.028Z,17.10
2018-07-11T18:30:37.304Z,17.10
2018-07-11T18:33:27.806Z,17.10
2018-07-11T18:37:10.173Z,17.10
2018-07-11T18:41:16.862Z,17.10
2018-07-11T18:43:54.364Z,17.00
2018-07-11T18:46:34.569Z,17.00
2018-07-11T18:50:52.137Z,17.00
2018-07-11T18:53:36.622Z,16.90
2018-07-11T18:57:12.179Z,16.90
2018-07-11T18:59:52.803Z,16.90
2018-07-11T19:02:29.403Z,16.90
2018-07-11T19:05:11.845Z,17.00
2018-07-11T19:08:00.972Z,17.00
2018-07-11T19:10:45.228Z,17.00
2018-07-11T19:13:25.553Z,17.00
2018-07-11T19:15:58.670Z,17.00
2018-07-11T19:19:24.279Z,17.00
2018-07-11T19:21:59.323Z,17.10
2018-07-11T19:25:37.322Z,17.00
2018-07-11T19:28:21.260Z,17.00
2018-07-11T19:30:57.440Z,16.90
2018-07-11T19:34:37.353Z,17.00
2018-07-11T19:37:18.242Z,17.10
2018-07-11T19:39:58.089Z,17.10
2018-07-11T19:42:37.845Z,17.10
2018-07-11T19:45:15.626Z,17.10
2018-07-11T19:47:57.609Z,17.00
2018-07-11T19:50:33.738Z,17.10
2018-07-11T19:54:14.712Z,17.00
2018-07-11T19:56:45.445Z,16.80
2018-07-11T19:59:14.748Z,16.90
2018-07-11T20:01:43.980Z,16.80
2018-07-11T20:04:14.056Z,16.80
2018-07-11T20:06:44.055Z,16.80
2018-07-11T20:09:14.222Z,16.80
2018-07-11T20:11:43.223Z,16.80
2018-07-11T20:14:12.508Z,16.80
2018-07-11T20:16:42.163Z,16.80
2018-07-11T20:19:11.318Z,16.70
2018-07-11T20:21:40.411Z,16.80
2018-07-11T20:24:10.641Z,16.80
2018-07-11T20:26:39.773Z,16.80
2018-07-11T20:31:37.610Z,16.80
2018-07-11T20:34:06.699Z,16.70
2018-07-11T20:36:35.975Z,16.60
2018-07-11T20:39:05.292Z,16.70
2018-07-11T20:41:34.348Z,16.70
2018-07-11T20:44:03.734Z,16.70
2018-07-11T20:46:34.421Z,16.60
2018-07-11T20:49:08.652Z,16.60
2018-07-11T20:51:37.722Z,16.60
2018-07-11T20:54:06.596Z,16.60
2018-07-11T20:56:35.473Z,16.60
2018-07-11T20:59:15.384Z,16.50
2018-07-11T21:04:02.778Z,16.50
2018-07-11T21:06:41.684Z,16.50
2018-07-11T21:09:22.776Z,16.40
2018-07-11T21:13:04.060Z,16.40
2018-07-11T21:15:53.016Z,16.40
2018-07-11T21:18:32.351Z,16.30
2018-07-11T21:21:01.673Z,16.30
2018-07-11T21:23:31.155Z,16.30
2018-07-11T21:26:00.920Z,16.40
2018-07-11T21:28:30.742Z,16.50
2018-07-11T21:30:59.755Z,16.40
2018-07-11T21:33:29.113Z,16.50
2018-07-11T21:35:59.431Z,16.50
2018-07-11T21:38:28.964Z,16.50
2018-07-11T21:40:58.249Z,16.40
2018-07-11T21:43:27.352Z,16.30
2018-07-11T21:45:56.467Z,16.30
2018-07-11T21:48:26.487Z,16.30
2018-07-11T21:50:55.566Z,16.30
2018-07-11T21:53:24.926Z,16.40
2018-07-11T21:55:54.039Z,16.40
2018-07-11T21:58:23.464Z,16.40
2018-07-11T22:00:52.544Z,16.40
2018-07-11T22:03:21.543Z,16.30
2018-07-11T22:05:50.489Z,16.40
2018-07-11T22:08:19.373Z,16.30
2018-07-11T22:10:48.295Z,16.30
2018-07-11T22:13:17.160Z,16.30
2018-07-11T22:15:46.112Z,16.30
2018-07-11T22:18:26.369Z,16.30
2018-07-11T22:20:54.728Z,16.30
2018-07-11T22:23:23.149Z,16.30
2018-07-11T22:25:50.763Z,16.20
2018-07-11T22:28:18.425Z,16.20
2018-07-11T22:30:46.188Z,16.20
2018-07-11T22:33:13.827Z,16.30
2018-07-11T22:35:41.519Z,16.10
2018-07-11T22:38:09.365Z,16.10
2018-07-11T22:40:37.449Z,16.10
2018-07-11T22:43:05.527Z,16.10
2018-07-11T22:45:33.370Z,16.10
2018-07-11T22:48:01.133Z,16.10
2018-07-11T22:50:29.202Z,15.90
2018-07-11T22:52:56.973Z,15.80
2018-07-11T22:55:24.876Z,15.80
2018-07-11T22:57:52.855Z,15.60
2018-07-11T23:00:20.655Z,15.50
2018-07-11T23:02:48.419Z,15.50
2018-07-11T23:05:16.286Z,15.50
2018-07-11T23:07:44.044Z,15.50
2018-07-11T23:10:11.769Z,15.40
2018-07-11T23:12:39.469Z,15.40
2018-07-11T23:15:07.231Z,15.40
2018-07-11T23:17:34.836Z,15.40
2018-07-11T23:20:02.469Z,15.40
2018-07-11T23:22:30.046Z,15.30
2018-07-11T23:24:57.636Z,15.30
2018-07-11T23:27:25.254Z,15.30
2018-07-11T23:29:52.841Z,15.30
2018-07-11T23:32:20.538Z,15.30
2018-07-11T23:34:48.708Z,15.30
2018-07-11T23:37:16.989Z,15.30
2018-07-11T23:39:44.643Z,15.40
2018-07-11T23:42:12.405Z,15.40
2018-07-11T23:44:40.165Z,15.50
2018-07-11T23:47:07.928Z,15.50
2018-07-11T23:49:35.972Z,15.50
2018-07-11T23:52:04.068Z,15.60
2018-07-11T23:54:31.829Z,15.60
2018-07-11T23:56:59.590Z,15.60
2018-07-11T23:59:27.359Z,15.50
